Terminal Aerodrome Forecast
Issued by NWS

Home | Current Version | Previous Version | Text Only | Print | Product List | Glossary On
Versions: 1 2 3 4 5 6 7 8 9 10 11 12 13 14 15 16 17 18 19 20 21 22 23 24 25 26 27 28 29 30 31 32 33 34 35 36 37 38 39 40 41 42 43 44 45 46 47 48
000
FTUS44 KFWD 251043 CCA
TAFAFW
TAF COR
KAFW 251043Z 2511/2606 17008KT P6SM OVC008
      TEMPO 2512/2514 5SM BR
     FM251500 17013KT P6SM BKN015
     FM251900 18015KT 3SM SHRA VCTS OVC022CB
     FM252200 22011KT P6SM SCT025 OVC100
     FM260300 16011KT P6SM VCTS OVC018CB=

USA.gov is the U.S. government's official web portal to all federal, state and local government web resources and services.